EGHE/ISC METAR and TAF weather

Enter ICAO airport designator
Station Type Date Time Source
EGHE METAR 2019/12/14 11:20 UTC NOAA

EGHE 141120Z 24022G33KT 9999 FEW030 10/03 Q0997


Station Type Date Time Source
EGHE Decoded METAR 2019/12/14 11:20 UTC NOAA

Scilly, Saint Mary'S, United Kingdom (EGHE) 49-55N 006-18W 0M
Dec 14, 2019 - 06:20 AM EST / 2019.12.14 1120 UTC
Wind: from the WSW (240 degrees) at 25 MPH (22 KT) gusting to 38 MPH (33 KT):0
Visibility: greater than 7 mile(s):0
Sky conditions: mostly clear
Temperature: 50 F (10 C)
Dew Point: 37 F (3 C)
Relative Humidity: 61%
Pressure (altimeter): 29.44 in. Hg (0997 hPa)
ob: EGHE 141120Z 24022G33KT 9999 FEW030 10/03 Q0997
cycle: 11

Station Type Date Time Source
EGHE TAF UTC NOAA

Error!

Example: see airport list